Time,TemperatureF,DewpointF,PressureIn,WindDirection,WindDirectionDegrees,WindSpeedMPH,WindSpeedGustMPH,Humidity,HourlyPrecipIn,Conditions,Clouds,dailyrainin,SoftwareType,DateUTC
2013-05-29 00:01:00,57.3,55.0,30.16,West,266,0.0,0.0,92,0.00,,,0.00,Wunderground PWS Mod,2013-05-29 04:01:00,
2013-05-29 00:11:00,57.3,55.0,30.16,West,266,0.0,0.0,92,0.00,,,0.00,Wunderground PWS Mod,2013-05-29 04:11:00,
2013-05-29 00:15:00,57.3,55.0,30.15,N/A,-737280,0.0,0.0,92,0.04,,,0.07,Wunderground PWS Mod,2013-05-29 04:15:00,
2013-05-29 00:21:00,57.3,55.0,30.15,West,266,0.0,0.0,92,0.36,,,0.04,Wunderground PWS Mod,2013-05-29 04:21:00,
2013-05-29 00:31:00,57.3,55.0,30.15,West,266,0.0,0.0,92,0.06,,,0.04,Wunderground PWS Mod,2013-05-29 04:31:00,
2013-05-29 00:41:00,57.3,55.0,30.16,West,266,0.0,0.0,92,0.00,,,0.04,Wunderground PWS Mod,2013-05-29 04:41:00,
2013-05-29 00:51:00,57.3,55.0,30.15,West,266,0.0,0.0,92,0.16,,,0.06,Wunderground PWS Mod,2013-05-29 04:51:00,
2013-05-29 01:01:00,57.3,55.0,30.14,West,266,0.0,0.0,92,0.06,,,0.07,Wunderground PWS Mod,2013-05-29 05:01:00,
2013-05-29 01:11:00,57.4,55.4,30.14,West,266,0.0,0.0,93,0.00,,,0.07,Wunderground PWS Mod,2013-05-29 05:11:00,
2013-05-29 01:15:00,57.4,55.4,30.13,N/A,-737280,0.0,0.0,93,0.03,,,0.07,Wunderground PWS Mod,2013-05-29 05:15:00,
2013-05-29 01:21:00,57.4,55.4,30.14,West,266,0.0,0.0,93,0.00,,,0.07,Wunderground PWS Mod,2013-05-29 05:21:00,
2013-05-29 01:31:00,57.5,55.5,30.13,West,266,0.0,0.0,93,0.00,,,0.07,Wunderground PWS Mod,2013-05-29 05:31:00,
2013-05-29 01:41:00,57.5,55.5,30.12,West,266,0.0,0.0,93,0.00,,,0.07,Wunderground PWS Mod,2013-05-29 05:41:00,
2013-05-29 01:51:00,57.5,55.5,30.12,West,266,0.0,0.0,93,0.00,,,0.07,Wunderground PWS Mod,2013-05-29 05:51:00,
2013-05-29 02:01:00,57.6,55.6,30.11,West,266,0.0,0.0,93,0.00,,,0.07,Wunderground PWS Mod,2013-05-29 06:01:00,
2013-05-29 02:11:00,57.6,55.6,30.11,West,266,0.0,0.0,93,0.20,,,0.10,Wunderground PWS Mod,2013-05-29 06:11:00,
2013-05-29 02:15:00,57.6,55.6,30.11,N/A,-737280,0.0,0.0,93,0.06,,,0.22,Wunderground PWS Mod,2013-05-29 06:15:00,
2013-05-29 02:21:00,57.6,55.6,30.11,West,266,0.0,0.0,93,0.05,,,0.10,Wunderground PWS Mod,2013-05-29 06:21:00,
2013-05-29 02:31:00,57.6,55.6,30.11,West,266,0.0,0.0,93,0.17,,,0.13,Wunderground PWS Mod,2013-05-29 06:31:00,
2013-05-29 02:41:00,57.6,55.6,30.10,West,266,0.0,0.0,93,0.46,,,0.15,Wunderground PWS Mod,2013-05-29 06:41:00,
2013-05-29 02:51:00,57.6,55.6,30.11,West,266,0.0,0.0,93,0.18,,,0.20,Wunderground PWS Mod,2013-05-29 06:51:00,
2013-05-29 03:01:00,57.6,55.6,30.10,West,266,0.0,0.0,93,0.42,,,0.23,Wunderground PWS Mod,2013-05-29 07:01:00,
2013-05-29 03:11:00,57.6,55.6,30.10,West,266,0.0,0.0,93,0.11,,,0.24,Wunderground PWS Mod,2013-05-29 07:11:00,
2013-05-29 03:15:00,57.6,55.6,30.09,N/A,-737280,0.0,0.0,93,0.15,,,0.33,Wunderground PWS Mod,2013-05-29 07:15:00,
2013-05-29 03:21:00,57.6,55.6,30.10,West,266,0.0,0.0,93,0.14,,,0.27,Wunderground PWS Mod,2013-05-29 07:21:00,
2013-05-29 03:31:00,57.6,55.6,30.10,West,266,0.0,0.0,93,0.06,,,0.28,Wunderground PWS Mod,2013-05-29 07:31:00,
2013-05-29 03:41:00,57.6,55.6,30.09,West,266,0.0,0.0,93,0.19,,,0.32,Wunderground PWS Mod,2013-05-29 07:41:00,
2013-05-29 03:51:00,57.5,55.5,30.08,West,266,0.0,0.0,93,0.05,,,0.32,Wunderground PWS Mod,2013-05-29 07:51:00,
2013-05-29 04:01:00,57.5,55.8,30.08,West,266,0.0,0.0,94,0.05,,,0.33,Wunderground PWS Mod,2013-05-29 08:01:00,
2013-05-29 04:11:00,57.5,55.8,30.08,West,266,0.0,0.0,94,0.00,,,0.33,Wunderground PWS Mod,2013-05-29 08:11:00,
2013-05-29 04:15:00,57.6,55.9,30.09,N/A,-737280,0.0,0.0,94,0.05,,,0.34,Wunderground PWS Mod,2013-05-29 08:15:00,
2013-05-29 04:21:00,57.6,55.9,30.09,West,266,0.0,0.0,94,0.00,,,0.33,Wunderground PWS Mod,2013-05-29 08:21:00,
2013-05-29 04:31:00,57.6,55.9,30.09,West,266,0.0,0.0,94,0.00,,,0.33,Wunderground PWS Mod,2013-05-29 08:31:00,
2013-05-29 04:41:00,57.6,55.9,30.08,West,266,0.0,0.0,94,0.00,,,0.34,Wunderground PWS Mod,2013-05-29 08:41:00,
2013-05-29 04:51:00,57.6,55.9,30.09,West,266,0.0,0.0,94,0.00,,,0.34,Wunderground PWS Mod,2013-05-29 08:51:00,
2013-05-29 05:01:00,57.6,55.9,30.09,West,266,0.0,0.0,94,0.00,,,0.34,Wunderground PWS Mod,2013-05-29 09:01:00,
2013-05-29 05:11:00,57.6,55.9,30.09,West,266,0.0,0.0,94,0.00,,,0.34,Wunderground PWS Mod,2013-05-29 09:11:00,
2013-05-29 05:15:00,57.6,55.9,30.09,N/A,-737280,0.0,0.0,94,0.01,,,0.34,Wunderground PWS Mod,2013-05-29 09:15:00,
2013-05-29 05:21:00,57.6,55.9,30.09,West,266,0.0,0.0,94,0.00,,,0.34,Wunderground PWS Mod,2013-05-29 09:21:00,
2013-05-29 05:31:00,57.6,55.9,30.09,West,266,0.0,0.0,94,0.00,,,0.34,Wunderground PWS Mod,2013-05-29 09:31:00,
2013-05-29 05:41:00,57.6,55.9,30.09,West,266,0.0,0.0,94,0.00,,,0.34,Wunderground PWS Mod,2013-05-29 09:41:00,
2013-05-29 05:51:00,57.6,55.9,30.09,West,266,0.0,0.0,94,0.00,,,0.34,Wunderground PWS Mod,2013-05-29 09:51:00,
2013-05-29 06:01:00,57.7,56.0,30.09,West,266,0.0,0.0,94,0.00,,,0.34,Wunderground PWS Mod,2013-05-29 10:01:00,
2013-05-29 06:11:00,57.7,56.0,30.09,West,266,0.0,0.0,94,0.00,,,0.34,Wunderground PWS Mod,2013-05-29 10:11:00,
2013-05-29 06:15:00,57.9,56.2,30.08,N/A,-737280,0.0,0.0,94,0.00,,,0.34,Wunderground PWS Mod,2013-05-29 10:15:00,
2013-05-29 06:21:00,57.8,56.1,30.09,West,266,0.0,0.0,94,0.00,,,0.34,Wunderground PWS Mod,2013-05-29 10:21:00,
2013-05-29 06:31:00,57.9,56.2,30.08,West,266,0.0,0.0,94,0.00,,,0.34,Wunderground PWS Mod,2013-05-29 10:31:00,
2013-05-29 06:41:00,58.0,56.3,30.09,West,266,0.0,0.0,94,0.00,,,0.34,Wunderground PWS Mod,2013-05-29 10:41:00,
2013-05-29 06:51:00,58.0,56.3,30.09,West,266,0.0,0.0,94,0.00,,,0.34,Wunderground PWS Mod,2013-05-29 10:51:00,
2013-05-29 07:01:00,58.2,56.5,30.09,West,266,0.0,0.0,94,0.00,,,0.34,Wunderground PWS Mod,2013-05-29 11:01:00,
2013-05-29 07:11:00,58.4,56.7,30.09,West,266,0.0,0.0,94,0.00,,,0.34,Wunderground PWS Mod,2013-05-29 11:11:00,
2013-05-29 07:15:00,58.6,56.9,30.09,N/A,-737280,0.0,0.0,94,0.00,,,0.34,Wunderground PWS Mod,2013-05-29 11:15:00,
2013-05-29 07:21:00,58.5,56.8,30.09,West,266,0.0,0.0,94,0.00,,,0.34,Wunderground PWS Mod,2013-05-29 11:21:00,
2013-05-29 07:31:00,58.6,56.9,30.09,West,266,0.0,0.0,94,0.00,,,0.34,Wunderground PWS Mod,2013-05-29 11:31:00,
2013-05-29 07:41:00,58.7,57.0,30.09,West,266,0.0,0.0,94,0.00,,,0.34,Wunderground PWS Mod,2013-05-29 11:41:00,
2013-05-29 07:51:00,58.9,57.2,30.09,West,266,0.0,0.0,94,0.00,,,0.34,Wunderground PWS Mod,2013-05-29 11:51:00,
2013-05-29 08:01:00,59.0,57.3,30.09,West,266,0.0,0.0,94,0.00,,,0.34,Wunderground PWS Mod,2013-05-29 12:01:00,
2013-05-29 08:11:00,59.0,57.3,30.09,West,266,0.0,1.0,94,0.00,,,0.34,Wunderground PWS Mod,2013-05-29 12:11:00,
2013-05-29 08:15:00,59.3,57.6,30.08,West,270,0.0,2.0,94,0.00,,,0.34,Wunderground PWS Mod,2013-05-29 12:15:00,
2013-05-29 08:21:00,59.2,57.5,30.08,West,266,0.0,1.0,94,0.00,,,0.34,Wunderground PWS Mod,2013-05-29 12:21:00,
2013-05-29 08:31:00,59.4,57.7,30.08,West,266,0.0,1.0,94,0.00,,,0.34,Wunderground PWS Mod,2013-05-29 12:31:00,
2013-05-29 08:41:00,59.4,57.7,30.08,West,266,0.0,1.0,94,0.00,,,0.34,Wunderground PWS Mod,2013-05-29 12:41:00,
2013-05-29 08:51:00,59.4,57.7,30.09,West,266,0.0,1.0,94,0.00,,,0.34,Wunderground PWS Mod,2013-05-29 12:51:00,
2013-05-29 09:01:00,59.6,57.9,30.09,West,266,0.0,1.0,94,0.00,,,0.34,Wunderground PWS Mod,2013-05-29 13:01:00,
2013-05-29 09:11:00,59.6,57.9,30.10,NE,53,0.0,1.0,94,0.00,,,0.34,Wunderground PWS Mod,2013-05-29 13:11:00,
2013-05-29 09:15:00,59.9,58.2,30.09,SE,135,0.0,4.0,94,0.00,,,0.34,Wunderground PWS Mod,2013-05-29 13:15:00,
2013-05-29 09:21:00,59.8,58.1,30.09,SE,140,1.0,1.0,94,0.00,,,0.34,Wunderground PWS Mod,2013-05-29 13:21:00,
2013-05-29 09:31:00,60.0,58.3,30.10,SE,140,0.0,1.0,94,0.00,,,0.34,Wunderground PWS Mod,2013-05-29 13:31:00,
2013-05-29 09:41:00,60.0,58.3,30.10,SE,140,0.0,1.0,94,0.00,,,0.34,Wunderground PWS Mod,2013-05-29 13:41:00,
2013-05-29 09:51:00,60.2,58.5,30.10,SE,140,0.0,1.0,94,0.00,,,0.34,Wunderground PWS Mod,2013-05-29 13:51:00,
2013-05-29 10:01:00,60.7,59.0,30.09,SE,140,0.0,1.0,94,0.00,,,0.34,Wunderground PWS Mod,2013-05-29 14:01:00,
2013-05-29 10:11:00,61.2,59.5,30.08,SE,140,0.0,0.0,94,0.00,,,0.34,Wunderground PWS Mod,2013-05-29 14:11:00,
2013-05-29 10:15:00,61.6,59.9,30.08,N/A,-737280,0.0,0.0,94,0.00,,,0.34,Wunderground PWS Mod,2013-05-29 14:15:00,
2013-05-29 10:21:00,61.4,59.7,30.08,SE,140,0.0,0.0,94,0.00,,,0.34,Wunderground PWS Mod,2013-05-29 14:21:00,
2013-05-29 10:31:00,61.6,59.9,30.08,SE,146,0.0,0.0,94,0.00,,,0.34,Wunderground PWS Mod,2013-05-29 14:31:00,
2013-05-29 10:41:00,62.2,60.5,30.07,SE,146,0.0,0.0,94,0.00,,,0.34,Wunderground PWS Mod,2013-05-29 14:41:00,
2013-05-29 10:51:00,62.8,61.0,30.07,SE,146,0.0,0.0,94,0.00,,,0.34,Wunderground PWS Mod,2013-05-29 14:51:00,
2013-05-29 11:01:00,62.9,60.8,30.08,SW,235,0.0,0.0,93,0.00,,,0.34,Wunderground PWS Mod,2013-05-29 15:01:00,
2013-05-29 11:11:00,63.6,61.2,30.08,WSW,241,0.0,0.0,92,0.00,,,0.34,Wunderground PWS Mod,2013-05-29 15:11:00,
2013-05-29 11:15:00,65.1,62.4,30.05,N/A,-737280,0.0,0.0,91,0.00,,,0.34,Wunderground PWS Mod,2013-05-29 15:15:00,
2013-05-29 11:21:00,64.3,61.6,30.06,WSW,239,0.0,0.0,91,0.00,,,0.34,Wunderground PWS Mod,2013-05-29 15:21:00,
2013-05-29 11:31:00,65.2,62.5,30.05,WSW,239,0.0,0.0,91,0.00,,,0.34,Wunderground PWS Mod,2013-05-29 15:31:00,
2013-05-29 11:41:00,65.2,61.9,30.06,SSW,213,0.0,0.0,89,0.00,,,0.34,Wunderground PWS Mod,2013-05-29 15:41:00,
2013-05-29 11:51:00,65.4,62.1,30.05,SSW,213,0.0,0.0,89,0.00,,,0.34,Wunderground PWS Mod,2013-05-29 15:51:00,
2013-05-29 12:01:00,66.7,63.4,30.06,SSW,213,0.0,0.0,89,0.00,,,0.34,Wunderground PWS Mod,2013-05-29 16:01:00,
2013-05-29 12:11:00,67.6,63.6,30.05,SSW,213,0.0,0.0,87,0.00,,,0.34,Wunderground PWS Mod,2013-05-29 16:11:00,
2013-05-29 12:15:00,69.7,65.0,30.04,N/A,-737280,0.0,0.0,85,0.00,,,0.34,Wunderground PWS Mod,2013-05-29 16:15:00,
2013-05-29 12:21:00,68.3,64.3,30.05,SSW,213,0.0,0.0,87,0.00,,,0.34,Wunderground PWS Mod,2013-05-29 16:21:00,
2013-05-29 12:31:00,69.9,65.5,30.04,SSW,213,0.0,0.0,86,0.00,,,0.34,Wunderground PWS Mod,2013-05-29 16:31:00,
2013-05-29 12:41:00,71.4,66.7,30.04,SSW,205,0.0,0.0,85,0.00,,,0.34,Wunderground PWS Mod,2013-05-29 16:41:00,
2013-05-29 12:51:00,72.4,66.9,30.03,SSW,205,0.0,0.0,83,0.00,,,0.34,Wunderground PWS Mod,2013-05-29 16:51:00,
2013-05-29 13:01:00,73.0,66.8,30.03,SSW,207,0.0,0.0,81,0.00,,,0.34,Wunderground PWS Mod,2013-05-29 17:01:00,
2013-05-29 13:11:00,73.8,67.2,30.02,SSW,207,0.0,0.0,80,0.00,,,0.34,Wunderground PWS Mod,2013-05-29 17:11:00,
2013-05-29 13:15:00,74.3,66.6,30.02,South,180,0.0,3.0,77,0.00,,,0.34,Wunderground PWS Mod,2013-05-29 17:15:00,
2013-05-29 13:21:00,74.4,67.1,30.02,SSW,210,0.0,0.0,78,0.00,,,0.34,Wunderground PWS Mod,2013-05-29 17:21:00,
2013-05-29 13:31:00,74.4,67.1,30.02,West,269,0.0,0.0,78,0.00,,,0.34,Wunderground PWS Mod,2013-05-29 17:31:00,
2013-05-29 13:41:00,74.7,67.0,30.02,West,276,1.0,1.0,77,0.00,,,0.34,Wunderground PWS Mod,2013-05-29 17:41:00,
2013-05-29 13:51:00,75.7,68.4,30.01,West,276,1.0,1.0,78,0.00,,,0.34,Wunderground PWS Mod,2013-05-29 17:51:00,
2013-05-29 14:01:00,76.9,68.8,30.01,WSW,248,0.0,0.0,76,0.00,,,0.34,Wunderground PWS Mod,2013-05-29 18:01:00,
2013-05-29 14:11:00,77.6,68.3,30.01,WSW,252,1.0,3.0,73,0.00,,,0.34,Wunderground PWS Mod,2013-05-29 18:11:00,
2013-05-29 14:15:00,77.6,68.3,30.01,WSW,248,1.0,4.0,73,0.00,,,0.34,Wunderground PWS Mod,2013-05-29 18:15:00,
2013-05-29 14:21:00,77.7,68.4,30.01,West,261,1.0,1.0,73,0.00,,,0.34,Wunderground PWS Mod,2013-05-29 18:21:00,
2013-05-29 14:31:00,77.6,69.0,30.01,WSW,246,0.0,3.0,75,0.00,,,0.34,Wunderground PWS Mod,2013-05-29 18:31:00,
2013-05-29 14:41:00,77.9,68.9,30.01,WSW,246,0.0,3.0,74,0.00,,,0.34,Wunderground PWS Mod,2013-05-29 18:41:00,
2013-05-29 14:51:00,77.9,68.5,30.01,WSW,246,0.0,3.0,73,0.00,,,0.34,Wunderground PWS Mod,2013-05-29 18:51:00,
2013-05-29 15:01:00,77.9,68.9,30.00,WSW,244,0.0,3.0,74,0.00,,,0.34,Wunderground PWS Mod,2013-05-29 19:01:00,
2013-05-29 15:11:00,78.3,69.3,30.01,SW,236,0.0,1.0,74,0.00,,,0.34,Wunderground PWS Mod,2013-05-29 19:11:00,
2013-05-29 15:15:00,79.2,69.4,30.01,SW,225,1.0,4.0,72,0.00,,,0.34,Wunderground PWS Mod,2013-05-29 19:15:00,
2013-05-29 15:21:00,78.9,69.1,30.01,SW,228,1.0,1.0,72,0.00,,,0.34,Wunderground PWS Mod,2013-05-29 19:21:00,
2013-05-29 15:31:00,79.2,69.8,30.01,East,81,1.0,1.0,73,0.00,,,0.34,Wunderground PWS Mod,2013-05-29 19:31:00,
2013-05-29 15:41:00,79.1,69.7,30.01,West,267,0.0,1.0,73,0.00,,,0.34,Wunderground PWS Mod,2013-05-29 19:41:00,
2013-05-29 15:51:00,79.4,70.0,30.00,West,267,0.0,1.0,73,0.00,,,0.34,Wunderground PWS Mod,2013-05-29 19:51:00,
2013-05-29 16:01:00,79.3,69.5,30.00,SSW,205,0.0,1.0,72,0.00,,,0.34,Wunderground PWS Mod,2013-05-29 20:01:00,
2013-05-29 16:11:00,79.0,70.0,29.99,SSW,206,0.0,3.0,74,0.00,,,0.34,Wunderground PWS Mod,2013-05-29 20:11:00,
2013-05-29 16:15:00,79.8,70.8,29.99,SSW,203,0.0,2.0,74,0.00,,,0.34,Wunderground PWS Mod,2013-05-29 20:15:00,
2013-05-29 16:21:00,79.2,69.8,29.99,WNW,290,0.0,3.0,73,0.00,,,0.34,Wunderground PWS Mod,2013-05-29 20:21:00,
2013-05-29 16:31:00,79.9,70.9,29.99,WNW,290,0.0,3.0,74,0.00,,,0.34,Wunderground PWS Mod,2013-05-29 20:31:00,
2013-05-29 16:41:00,80.1,70.7,29.99,SE,139,0.0,3.0,73,0.00,,,0.34,Wunderground PWS Mod,2013-05-29 20:41:00,
2013-05-29 16:51:00,80.0,71.4,29.99,NNE,21,0.0,3.0,75,0.00,,,0.34,Wunderground PWS Mod,2013-05-29 20:51:00,
2013-05-29 17:01:00,80.0,71.4,29.98,ESE,118,0.0,3.0,75,0.00,,,0.34,Wunderground PWS Mod,2013-05-29 21:01:00,
2013-05-29 17:11:00,80.4,71.3,29.98,ESE,118,0.0,3.0,74,0.00,,,0.34,Wunderground PWS Mod,2013-05-29 21:11:00,
2013-05-29 17:15:00,80.0,71.8,29.98,ESE,113,0.0,1.0,76,0.00,,,0.34,Wunderground PWS Mod,2013-05-29 21:15:00,
2013-05-29 17:21:00,80.2,71.6,29.97,ESE,118,0.0,3.0,75,0.00,,,0.34,Wunderground PWS Mod,2013-05-29 21:21:00,
2013-05-29 17:31:00,80.0,71.8,29.97,ESE,118,0.0,3.0,76,0.00,,,0.34,Wunderground PWS Mod,2013-05-29 21:31:00,
2013-05-29 17:41:00,79.9,71.3,29.96,ESE,119,0.0,3.0,75,0.00,,,0.34,Wunderground PWS Mod,2013-05-29 21:41:00,
2013-05-29 17:51:00,80.1,71.5,29.95,SSW,197,0.0,3.0,75,0.00,,,0.34,Wunderground PWS Mod,2013-05-29 21:51:00,
2013-05-29 18:01:00,80.3,71.3,29.95,SSW,198,0.0,3.0,74,0.00,,,0.34,Wunderground PWS Mod,2013-05-29 22:01:00,
2013-05-29 18:11:00,80.2,71.2,29.95,West,260,0.0,2.0,74,0.00,,,0.34,Wunderground PWS Mod,2013-05-29 22:11:00,
2013-05-29 18:15:00,79.7,70.7,29.96,West,270,0.0,3.0,74,0.00,,,0.34,Wunderground PWS Mod,2013-05-29 22:15:00,
2013-05-29 18:21:00,79.9,70.9,29.95,West,260,0.0,2.0,74,0.00,,,0.34,Wunderground PWS Mod,2013-05-29 22:21:00,
2013-05-29 18:31:00,79.7,70.3,29.95,West,261,0.0,2.0,73,0.00,,,0.34,Wunderground PWS Mod,2013-05-29 22:31:00,
2013-05-29 18:41:00,79.6,70.6,29.96,West,261,0.0,2.0,74,0.00,,,0.34,Wunderground PWS Mod,2013-05-29 22:41:00,
2013-05-29 18:51:00,79.4,70.4,29.95,WSW,254,0.0,2.0,74,0.00,,,0.34,Wunderground PWS Mod,2013-05-29 22:51:00,
2013-05-29 19:01:00,79.4,70.4,29.96,WSW,254,0.0,2.0,74,0.00,,,0.34,Wunderground PWS Mod,2013-05-29 23:01:00,
2013-05-29 19:11:00,79.2,70.2,29.96,West,263,0.0,2.0,74,0.00,,,0.34,Wunderground PWS Mod,2013-05-29 23:11:00,
2013-05-29 19:15:00,78.7,70.1,29.97,WSW,248,0.0,2.0,75,0.00,,,0.34,Wunderground PWS Mod,2013-05-29 23:15:00,
2013-05-29 19:21:00,79.0,70.4,29.97,ENE,61,0.0,2.0,75,0.00,,,0.34,Wunderground PWS Mod,2013-05-29 23:21:00,
2013-05-29 19:31:00,78.7,70.1,29.97,ENE,62,0.0,2.0,75,0.00,,,0.34,Wunderground PWS Mod,2013-05-29 23:31:00,
2013-05-29 19:41:00,78.5,70.3,29.98,ENE,62,0.0,2.0,76,0.00,,,0.34,Wunderground PWS Mod,2013-05-29 23:41:00,
2013-05-29 19:51:00,78.4,70.2,29.97,ENE,62,0.0,2.0,76,0.00,,,0.34,Wunderground PWS Mod,2013-05-29 23:51:00,
2013-05-29 20:01:00,78.1,69.9,29.97,ENE,62,0.0,2.0,76,0.00,,,0.34,Wunderground PWS Mod,2013-05-30 00:01:00,
2013-05-29 20:11:00,78.0,70.2,30.01,WSW,246,0.0,5.0,77,0.00,,,0.34,Wunderground PWS Mod,2013-05-30 00:11:00,
2013-05-29 20:15:00,71.3,63.7,29.98,NNW,338,2.0,20.0,77,0.01,,,0.69,Wunderground PWS Mod,2013-05-30 00:15:00,
2013-05-29 20:21:00,74.8,63.9,30.00,NW,323,4.0,4.0,69,0.00,,,0.34,Wunderground PWS Mod,2013-05-30 00:21:00,
2013-05-29 20:31:00,70.9,63.7,29.99,NNW,336,2.0,2.0,78,0.08,,,0.36,Wunderground PWS Mod,2013-05-30 00:31:00,
2013-05-29 20:41:00,69.2,64.2,30.00,West,275,1.0,3.0,84,0.43,,,0.55,Wunderground PWS Mod,2013-05-30 00:41:00,
2013-05-29 20:51:00,67.6,63.6,30.01,West,275,1.0,1.0,87,0.26,,,0.68,Wunderground PWS Mod,2013-05-30 00:51:00,
2013-05-29 21:01:00,67.2,63.8,30.03,ESE,102,0.0,0.0,89,0.08,,,0.69,Wunderground PWS Mod,2013-05-30 01:01:00,
2013-05-29 21:11:00,66.9,63.6,30.04,NNE,26,0.0,4.0,89,1.09,,,0.76,Wunderground PWS Mod,2013-05-30 01:11:00,
2013-05-29 21:15:00,66.4,63.7,30.04,NNE,23,0.0,2.0,91,0.47,,,0.83,Wunderground PWS Mod,2013-05-30 01:15:00,
2013-05-29 21:21:00,66.6,63.6,30.03,NNE,28,0.0,4.0,90,0.15,,,0.82,Wunderground PWS Mod,2013-05-30 01:21:00,
2013-05-29 21:31:00,66.4,63.7,30.04,NNE,29,0.0,4.0,91,0.04,,,0.82,Wunderground PWS Mod,2013-05-30 01:31:00,
2013-05-29 21:41:00,66.3,63.9,30.07,NNE,29,0.0,4.0,92,0.00,,,0.82,Wunderground PWS Mod,2013-05-30 01:41:00,
2013-05-29 21:51:00,66.4,64.0,30.07,NNE,15,0.0,4.0,92,0.00,,,0.83,Wunderground PWS Mod,2013-05-30 01:51:00,
2013-05-29 22:01:00,66.3,63.9,30.06,NNE,15,0.0,4.0,92,0.00,,,0.83,Wunderground PWS Mod,2013-05-30 02:01:00,
2013-05-29 22:11:00,66.2,63.8,30.06,East,98,0.0,3.0,92,0.00,,,0.84,Wunderground PWS Mod,2013-05-30 02:11:00,
2013-05-29 22:15:00,65.8,63.4,30.05,East,90,0.0,2.0,92,0.02,,,0.84,Wunderground PWS Mod,2013-05-30 02:15:00,
2013-05-29 22:21:00,65.9,63.5,30.05,East,98,0.0,3.0,92,0.00,,,0.84,Wunderground PWS Mod,2013-05-30 02:21:00,
2013-05-29 22:31:00,65.8,63.4,30.05,East,98,0.0,3.0,92,0.00,,,0.84,Wunderground PWS Mod,2013-05-30 02:31:00,
2013-05-29 22:41:00,65.7,63.3,30.06,East,98,0.0,3.0,92,0.00,,,0.84,Wunderground PWS Mod,2013-05-30 02:41:00,
2013-05-29 22:51:00,65.6,63.5,30.05,East,98,0.0,3.0,93,0.00,,,0.84,Wunderground PWS Mod,2013-05-30 02:51:00,
2013-05-29 23:01:00,65.6,63.5,30.05,East,98,0.0,3.0,93,0.00,,,0.84,Wunderground PWS Mod,2013-05-30 03:01:00,
2013-05-29 23:11:00,65.5,63.4,30.06,East,98,0.0,1.0,93,0.00,,,0.84,Wunderground PWS Mod,2013-05-30 03:11:00,
2013-05-29 23:15:00,65.3,63.2,30.06,N/A,-737280,0.0,0.0,93,0.00,,,0.84,Wunderground PWS Mod,2013-05-30 03:15:00,
2013-05-29 23:21:00,65.4,63.3,30.06,East,98,0.0,1.0,93,0.00,,,0.84,Wunderground PWS Mod,2013-05-30 03:21:00,
2013-05-29 23:31:00,65.2,63.1,30.06,East,98,0.0,1.0,93,0.00,,,0.84,Wunderground PWS Mod,2013-05-30 03:31:00,
2013-05-29 23:41:00,65.1,63.0,30.07,East,98,0.0,1.0,93,0.00,,,0.84,Wunderground PWS Mod,2013-05-30 03:41:00,
2013-05-29 23:51:00,64.9,62.8,30.07,East,98,0.0,1.0,93,0.00,,,0.84,Wunderground PWS Mod,2013-05-30 03:51:00,